BKN weather

Blackwell Tonkawa Municipal Airport
Blackwell, Oklahoma, United States

Public forecast

Using degrees Fahrenheit for public forecast. Weather courtesy of forecast.io.

Current aviation weather report (METAR) for Blackwell Tonkawa Municipal Airport

Retrieved 2019/12/15 10:35 UTC (0 seconds ago):

KBKN 151035Z AUTO 06014KT 9SM 00/M00 A2988 RMK AO2

Closest aviation forecast (TAF) to Blackwell Tonkawa Municipal Airport

Closest forecast is Ponca City Regional Airport, 12.0 nm (22.3 km) E. Retrieved 2019/12/15 06:22 UTC (4 hours ago):

TAF KPNC 150520Z 1506/1606 09007KT P6SM SKC FM151200 03010KT 4SM BR OVC020 TEMPO 1514/1516 3SM -FZRA BR OVC004 FM151800 02010KT 6SM -RA BR OVC010 FM152200 36010KT 6SM BR OVC010